Aérodrome :
LOGIN :

S'inscrire | Disclaimer

   EN    FR    IT 

 










Légende :    VFR   VFR Marginal   IFR   IFR Intensif   IFR Très Intensif
Visi : 
Plafond : 
>= 8 km
>= 3000ft
5 à 8 km
1000 à 3000 ft
1500m à 5 km
500 à 1000 ft
800 à 1500m
200 à 500 ft
< 800m
< 200 ft
Symboles :   Orages  Brouillard  Fortes neiges  Fortes précipitations  Vent > 20 kt
SIGMETs :   Divers  Orages  Givrage  Turbulence  Onde Orograph.  Cendres Volcan.







- Altitude de l'aérodrome : 123 ft
- Code IATA : BLQ


LIPE - Bologna Guglielmo Marconi

DERNIER METAR :
  • 240350Z 26005KT CAVOK M02/M08 Q1037

METARs EXPIRÉS :
  • 240320Z 24005KT 220V280 CAVOK M02/M08 Q1037
  • 240250Z 29006KT CAVOK M02/M09 Q1037
  • 240220Z 25003KT 220V290 CAVOK M02/M09 Q1037
  • 240150Z 30004KT CAVOK M02/M09 Q1037
  • 240120Z 30005KT CAVOK M02/M09 Q1037

TAF TAF LIPE
Valide du 24 à 00h jusqu'au 25 à 00h UTC


232300Z 2400/2424 VRB06KT CAVOK
Pas de NOTAMs connus pour ce terrain.
1 SIGMET publié pour la FIR Milano (LIMM) :
 
Turbulence forte
LIMM SIGMET 1 VALID 240130/240530 LIIP
LIMM MILANO FIR SEV TURB FCST SE OF LINE N4640 E01349 - N4333 E00742 FL200/370 MOV SE NC=



MET'MAP, la Météo Aéronautique d'un coup d'oeil ! - Copyright ORBIFLY Décembre 2007 - Disclaimer

ORBIFLY MET'MAP TEAM :

Programmation & Développement : Alexandra Zaïnal
Conception & Développement : Baudouin d'Aumeries
Co-Programmation & Développement : Marc-Olivier Méhu
Soutien technique & logistique : Manuel Goepfert

Contact : metmap@orbifly.com




SOURCES & CREDITS :

   NOAA